San Bernardino, CA (92410)

11:20 AM PDT on July 25, 2016 (GMT -0700)
North San Bernardino | | Change Station

Elev 1278 ft 34.16 °N, 117.29 °W | Updated 15 seconds ago

Scattered Clouds
Scattered Clouds
94.5 °F
Feels Like 91 °F
N
4.0
Wind Variable Wind from West
Gusts 4.0 mph

Today
High -- | Low -- °F
--% Chance of Precip.
Yesterday
High -- | Low -- °F
Precip. -- in
Pressure 29.99 in
Visibility 10.0 miles
Clouds Scattered Clouds 15000 ft
Heat Index 91 °F
Dew Point 46 °F
Humidity 19%
Rainfall 0.00 in
Snow Depth Not available.
5:55 AM 7:55 PM
Waning Gibbous, 63% visible
METAR KSBD 251747Z 00000KT 10SM SCT150 33/05 A2999
Pressure 29.99 in
Visibility 10.0 miles
Clouds Scattered Clouds 15000 ft
Heat Index 91 °F
Dew Point 46 °F
Humidity 19%
Rainfall 0.00 in
Snow Depth Not available.
5:55 AM 7:55 PM
Waning Gibbous, 63% visible
METAR KSBD 251747Z 00000KT 10SM SCT150 33/05 A2999

10-Day Weather Forecast

Almanac

Astronomy

Jul. 25, 2016 Rise Set
Actual Time
Civil Twilight
Nautical Twilight
Astronomical Twilight
Moon
Length of Visible Light
Length of Day
Tomorrow will be .
, % of the Moon is Illuminated

Today's Extremes

State Highs State Lows

Community

WunderPhotos

Upload Photos

1,927,365 photos uploaded!

WunderBlog® & News

Nearby

Air Quality

  Air Quality AQ Index Pollutant
Not available.

Snow Depth

Station Depth Elevation

Earthquake Activity

City Distance Mag. Time & Date
Minimum magnitude displayed is 2.5.

Coastal Water Temperatures

Place Temperature

Stations

Nearby Weather Stations

Station Location Temp. Windchill Dew Point Humidity Wind Precip. Elev Updated Type
                   

Watches & Warnings

There are currently no watches in effect.